createdAt,value
2017-03-04T00:00:36.445Z,90.14
2017-03-04T00:01:37.165Z,90.23
2017-03-04T00:02:37.906Z,90.71
2017-03-04T00:03:38.635Z,90.9
2017-03-04T00:04:39.343Z,90.71
2017-03-04T00:05:40.062Z,91.09
2017-03-04T00:06:40.779Z,90.9
2017-03-04T00:07:41.501Z,91.09
2017-03-04T00:08:42.202Z,91.56
2017-03-04T00:09:42.929Z,91.56
2017-03-04T00:10:43.654Z,91.75
2017-03-04T00:11:44.371Z,91.66
2017-03-04T00:12:45.085Z,91.75
2017-03-04T00:13:45.784Z,92.32
2017-03-04T00:14:46.520Z,92.13
2017-03-04T00:15:47.242Z,92.13
2017-03-04T00:16:47.962Z,92.32
2017-03-04T00:17:48.665Z,92.13
2017-03-04T00:18:49.389Z,91.94
2017-03-04T00:19:50.112Z,92.32
2017-03-04T00:20:50.826Z,92.32
2017-03-04T00:21:51.550Z,92.23
2017-03-04T00:22:52.251Z,92.71
2017-03-04T00:23:52.951Z,92.99
2017-03-04T00:24:53.676Z,92.9
2017-03-04T00:25:54.416Z,92.8
2017-03-04T00:26:55.122Z,92.51
2017-03-04T00:27:55.842Z,92.71
2017-03-04T00:28:56.601Z,92.9
2017-03-04T00:29:57.291Z,92.8
2017-03-04T00:30:58.019Z,93.08
2017-03-04T00:31:58.740Z,92.71
2017-03-04T00:32:59.447Z,92.8
2017-03-04T00:34:00.151Z,92.61
2017-03-04T00:35:00.877Z,93.18
2017-03-04T00:36:01.604Z,93.08
2017-03-04T00:37:02.289Z,92.9
2017-03-04T00:38:03.043Z,93.65
2017-03-04T00:39:03.774Z,93.56
2017-03-04T00:40:04.500Z,92.8
2017-03-04T00:41:05.277Z,93.56
2017-03-04T00:42:06.019Z,92.8
2017-03-04T00:43:06.754Z,93.56
2017-03-04T00:44:07.492Z,93.56
2017-03-04T00:45:08.198Z,93.46
2017-03-04T00:46:08.922Z,93.37
2017-03-04T00:47:09.646Z,93.56
2017-03-04T00:48:10.389Z,93.46
2017-03-04T00:49:11.103Z,94.03
2017-03-04T00:50:11.811Z,94.13
2017-03-04T00:51:12.538Z,94.13
2017-03-04T00:52:13.269Z,94.03
2017-03-04T00:53:13.979Z,93.84
2017-03-04T00:54:14.679Z,94.13
2017-03-04T00:55:15.395Z,94.32
2017-03-04T00:56:16.098Z,94.13
2017-03-04T00:57:16.817Z,94.42
2017-03-04T00:58:17.512Z,94.23
2017-03-04T00:59:18.235Z,94.13
2017-03-04T01:00:18.963Z,94.08
2017-03-04T01:01:19.682Z,93.8
2017-03-04T01:02:20.397Z,94.65
2017-03-04T01:03:21.117Z,94.65
2017-03-04T01:04:21.836Z,94.46
2017-03-04T01:05:22.572Z,94.93
2017-03-04T01:06:23.302Z,94.56
2017-03-04T01:07:24.026Z,95.12
2017-03-04T01:08:24.720Z,94.84
2017-03-04T01:09:25.431Z,95.12
2017-03-04T01:10:26.136Z,95.12
2017-03-04T01:11:26.859Z,94.74
2017-03-04T01:12:27.605Z,94.79
2017-03-04T01:13:28.328Z,94.93
2017-03-04T01:14:29.051Z,94.93
2017-03-04T01:15:29.784Z,94.84
2017-03-04T01:16:30.490Z,94.84
2017-03-04T01:17:31.211Z,94.93
2017-03-04T01:18:31.941Z,94.93
2017-03-04T01:19:32.642Z,95.51
2017-03-04T01:20:33.364Z,95.22
2017-03-04T01:21:34.082Z,95.7
2017-03-04T01:22:34.791Z,95.89
2017-03-04T01:23:35.490Z,95.7
2017-03-04T01:24:36.207Z,96.36
2017-03-04T01:25:36.955Z,96.55
2017-03-04T01:26:37.658Z,96.55
2017-03-04T01:27:38.392Z,96.83
2017-03-04T01:28:39.205Z,97.12
2017-03-04T01:29:39.931Z,97.22
2017-03-04T01:30:40.650Z,97.31
2017-03-04T01:31:41.349Z,96.93
2017-03-04T01:32:42.056Z,97.22
2017-03-04T01:33:42.770Z,97.12
2017-03-04T01:34:43.499Z,97.12
2017-03-04T01:35:44.270Z,97.22
2017-03-04T01:36:44.982Z,97.22
2017-03-04T01:37:45.713Z,97.22
2017-03-04T01:38:46.412Z,97.02
2017-03-04T01:39:47.159Z,97.5
2017-03-04T01:40:47.872Z,97.12
2017-03-04T01:41:48.574Z,96.74
2017-03-04T01:42:49.295Z,96.93
2017-03-04T01:43:50.015Z,96.26
2017-03-04T01:44:50.733Z,96.45
2017-03-04T01:45:51.423Z,96.93
2017-03-04T01:46:52.175Z,96.36
2017-03-04T01:47:52.890Z,96.55
2017-03-04T01:48:53.589Z,96.64
2017-03-04T01:49:54.299Z,96.83
2017-03-04T01:50:55.005Z,95.98
2017-03-04T01:51:55.700Z,95.89
2017-03-04T01:52:56.416Z,96.17
2017-03-04T01:53:57.128Z,95.98
2017-03-04T01:54:57.844Z,95.98
2017-03-04T01:55:58.622Z,96.17
2017-03-04T01:56:59.330Z,96.17
2017-03-04T01:58:00.051Z,95.79
2017-03-04T01:59:00.784Z,95.51
2017-03-04T02:00:01.488Z,95.6
2017-03-04T02:01:02.199Z,95.6
2017-03-04T02:02:02.931Z,95.03
2017-03-04T02:03:03.631Z,94.37
2017-03-04T02:04:04.346Z,94.65
2017-03-04T02:05:05.044Z,94.56
2017-03-04T02:06:05.777Z,94.37
2017-03-04T02:07:06.507Z,94.65
2017-03-04T02:08:07.238Z,94.08
2017-03-04T02:09:07.937Z,94.65
2017-03-04T02:10:08.647Z,94.08
2017-03-04T02:11:09.366Z,93.89
2017-03-04T02:12:10.114Z,94.27
2017-03-04T02:13:10.821Z,94.08
2017-03-04T02:14:11.538Z,93.89
2017-03-04T02:15:12.253Z,93.89
2017-03-04T02:16:12.995Z,93.51
2017-03-04T02:17:28.246Z,93.32
2017-03-04T02:18:28.950Z,93.23
2017-03-04T02:19:29.681Z,93.32
2017-03-04T02:20:30.404Z,93.7
2017-03-04T02:21:31.119Z,93.41
2017-03-04T02:22:31.931Z,93.32
2017-03-04T02:23:32.631Z,92.85
2017-03-04T02:24:33.368Z,92.94
2017-03-04T02:25:34.079Z,92.18
2017-03-04T02:26:34.790Z,91.99
2017-03-04T02:27:35.507Z,91.52
2017-03-04T02:28:36.262Z,91.8
2017-03-04T02:29:36.965Z,91.04
2017-03-04T02:30:37.746Z,91.52
2017-03-04T02:31:38.452Z,91.42
2017-03-04T02:32:39.191Z,91.42
2017-03-04T02:33:39.943Z,91.24
2017-03-04T02:34:40.694Z,91.52
2017-03-04T02:35:41.415Z,91.24
2017-03-04T02:36:42.125Z,91.33
2017-03-04T02:37:42.855Z,91.42
2017-03-04T02:38:43.569Z,91.24
2017-03-04T02:39:44.317Z,91.24
2017-03-04T02:40:45.028Z,91.52
2017-03-04T02:41:45.730Z,91.33
2017-03-04T02:42:46.424Z,91.71
2017-03-04T02:43:47.142Z,91.61
2017-03-04T02:44:47.886Z,91.61
2017-03-04T02:45:48.617Z,92.18
2017-03-04T02:46:49.321Z,91.52
2017-03-04T02:47:50.049Z,91.42
2017-03-04T02:48:50.761Z,91.52
2017-03-04T02:49:51.482Z,90.85
2017-03-04T02:50:52.203Z,91.42
2017-03-04T02:51:52.915Z,91.42
2017-03-04T02:52:53.640Z,91.14
2017-03-04T02:53:54.378Z,91.24
2017-03-04T02:54:55.096Z,91.71
2017-03-04T02:55:55.805Z,91.33
2017-03-04T02:56:56.524Z,90.57
2017-03-04T02:57:57.251Z,90.19
2017-03-04T02:58:57.974Z,90.66
2017-03-04T02:59:58.675Z,90.09
2017-03-04T03:00:59.394Z,90.28
2017-03-04T03:02:00.127Z,90
2017-03-04T03:03:00.872Z,90.28
2017-03-04T03:04:01.573Z,89.72
2017-03-04T03:05:02.294Z,90
2017-03-04T03:06:03.017Z,89.72
2017-03-04T03:07:03.731Z,89.53
2017-03-04T03:08:04.444Z,89.14
2017-03-04T03:09:05.179Z,88.29
2017-03-04T03:10:05.896Z,88.29
2017-03-04T03:11:06.625Z,88.1
2017-03-04T03:12:07.375Z,87.82
2017-03-04T03:13:08.086Z,88.2
2017-03-04T03:14:08.812Z,88.2
2017-03-04T03:15:09.519Z,87.91
2017-03-04T03:16:10.229Z,87.72
2017-03-04T03:17:11.051Z,87.62
2017-03-04T03:18:11.764Z,87.53
2017-03-04T03:19:12.477Z,86.77
2017-03-04T03:20:13.201Z,87.62
2017-03-04T03:21:13.893Z,87.05
2017-03-04T03:22:14.626Z,87.43
2017-03-04T03:23:15.339Z,87.62
2017-03-04T03:24:16.033Z,87.43
2017-03-04T03:25:16.737Z,87.62
2017-03-04T03:26:17.441Z,87.53
2017-03-04T03:27:18.162Z,87.72
2017-03-04T03:28:18.844Z,88.39
2017-03-04T03:29:19.561Z,87.62
2017-03-04T03:30:20.283Z,87.82
2017-03-04T03:31:20.996Z,87.53
2017-03-04T03:32:21.709Z,87.24
2017-03-04T03:33:22.426Z,87.24
2017-03-04T03:34:23.128Z,86.49
2017-03-04T03:35:23.844Z,86.2
2017-03-04T03:36:24.553Z,86.3
2017-03-04T03:37:25.273Z,87.24
2017-03-04T03:38:25.992Z,86.68
2017-03-04T03:39:26.721Z,86.2
2017-03-04T03:40:27.442Z,86.01
2017-03-04T03:41:28.171Z,86.11
2017-03-04T03:42:28.884Z,86.58
2017-03-04T03:43:29.588Z,86.39
2017-03-04T03:44:30.316Z,86.39
2017-03-04T03:45:31.038Z,86.58
2017-03-04T03:46:31.737Z,85.72
2017-03-04T03:47:32.459Z,85.63
2017-03-04T03:48:33.163Z,85.82
2017-03-04T03:49:33.867Z,85.16
2017-03-04T03:50:34.589Z,84.87
2017-03-04T03:51:35.300Z,85.35
2017-03-04T03:52:36.037Z,85.25
2017-03-04T03:53:36.766Z,85.72
2017-03-04T03:54:37.474Z,85.35
2017-03-04T03:55:38.199Z,84.87
2017-03-04T03:56:38.954Z,84.4
2017-03-04T03:57:39.659Z,84.59
2017-03-04T03:58:40.413Z,84.59
2017-03-04T03:59:41.167Z,84.21
2017-03-04T04:00:41.885Z,84.49
2017-03-04T04:01:42.581Z,84.3
2017-03-04T04:02:43.312Z,84.21
2017-03-04T04:03:44.022Z,83.54
2017-03-04T04:04:44.768Z,83.92
2017-03-04T04:05:45.485Z,84.21
2017-03-04T04:06:46.200Z,84.68
2017-03-04T04:07:46.926Z,84.4
2017-03-04T04:08:47.756Z,84.59
2017-03-04T04:09:48.479Z,84.97
2017-03-04T04:10:49.204Z,84.87
2017-03-04T04:11:49.927Z,85.16
2017-03-04T04:12:50.701Z,85.16
2017-03-04T04:13:51.419Z,85.25
2017-03-04T04:14:52.132Z,84.78
2017-03-04T04:15:52.921Z,84.78
2017-03-04T04:16:53.651Z,84.87
2017-03-04T04:17:54.396Z,84.78
2017-03-04T04:18:55.138Z,84.78
2017-03-04T04:19:55.895Z,84.59
2017-03-04T04:20:56.612Z,84.78
2017-03-04T04:21:57.331Z,84.97
2017-03-04T04:22:58.078Z,85.16
2017-03-04T04:23:58.834Z,85.06
2017-03-04T04:24:59.612Z,84.59
2017-03-04T04:26:00.297Z,85.16
2017-03-04T04:27:01.010Z,85.44
2017-03-04T04:28:01.726Z,84.87
2017-03-04T04:29:02.453Z,84.87
2017-03-04T04:30:03.155Z,84.97
2017-03-04T04:31:03.882Z,85.06
2017-03-04T04:32:04.617Z,85.16
2017-03-04T04:33:05.349Z,85.16
2017-03-04T04:34:06.090Z,84.97
2017-03-04T04:35:06.821Z,85.16
2017-03-04T04:36:07.555Z,85.35
2017-03-04T04:37:08.285Z,85.49
2017-03-04T04:38:08.998Z,85.11
2017-03-04T04:39:09.735Z,85.78
2017-03-04T04:40:10.481Z,86.25
2017-03-04T04:41:11.204Z,86.25
2017-03-04T04:42:11.926Z,85.97
2017-03-04T04:43:12.645Z,86.44
2017-03-04T04:44:13.392Z,86.07
2017-03-04T04:45:14.116Z,86.07
2017-03-04T04:46:14.832Z,86.07
2017-03-04T04:47:15.544Z,86.44
2017-03-04T04:48:16.267Z,86.44
2017-03-04T04:49:16.988Z,86.72
2017-03-04T04:50:17.722Z,87.2
2017-03-04T04:51:18.440Z,86.91
2017-03-04T04:52:19.163Z,87.49
2017-03-04T04:53:19.884Z,87.58
2017-03-04T04:54:20.603Z,87.01
2017-03-04T04:55:21.315Z,86.72
2017-03-04T04:56:22.024Z,86.91
2017-03-04T04:57:22.748Z,86.82
2017-03-04T04:58:23.457Z,86.82
2017-03-04T04:59:24.171Z,87.01
2017-03-04T05:00:24.901Z,87.3
2017-03-04T05:01:25.605Z,86.91
2017-03-04T05:02:26.364Z,86.82
2017-03-04T05:03:27.119Z,86.72
2017-03-04T05:04:27.814Z,87.01
2017-03-04T05:05:28.523Z,87.2
2017-03-04T05:06:29.253Z,87.01
2017-03-04T05:07:29.979Z,87.58
2017-03-04T05:08:30.715Z,87.68
2017-03-04T05:09:31.439Z,87.39
2017-03-04T05:10:32.167Z,87.68
2017-03-04T05:11:32.888Z,87.77
2017-03-04T05:12:33.604Z,87.77
2017-03-04T05:13:34.314Z,87.68
2017-03-04T05:14:35.037Z,88.34
2017-03-04T05:15:35.726Z,88.15
2017-03-04T05:16:36.448Z,87.87
2017-03-04T05:17:37.150Z,88.62
2017-03-04T05:18:37.884Z,88.43
2017-03-04T05:19:38.619Z,88.72
2017-03-04T05:20:39.339Z,88.72
2017-03-04T05:21:40.043Z,88.72
2017-03-04T05:22:40.775Z,88.72
2017-03-04T05:23:41.502Z,88.81
2017-03-04T05:24:42.241Z,89.2
2017-03-04T05:25:42.947Z,88.62
2017-03-04T05:26:43.659Z,89.1
2017-03-04T05:27:44.387Z,89
2017-03-04T05:28:45.083Z,89.2
2017-03-04T05:29:45.806Z,88.43
2017-03-04T05:30:46.531Z,88.15
2017-03-04T05:31:47.260Z,88.24
2017-03-04T05:32:47.966Z,88.34
2017-03-04T05:33:48.676Z,87.96
2017-03-04T05:34:49.385Z,88.43
2017-03-04T05:35:50.101Z,88.24
2017-03-04T05:36:50.831Z,88.62
2017-03-04T05:37:51.550Z,88.43
2017-03-04T05:38:52.766Z,88.53
2017-03-04T05:39:53.563Z,88.43
2017-03-04T05:40:54.298Z,88.53
2017-03-04T05:41:55.037Z,88.62
2017-03-04T05:42:56.521Z,89.29
2017-03-04T05:43:57.238Z,88.91
2017-03-04T05:44:57.989Z,89
2017-03-04T05:45:58.690Z,89.29
2017-03-04T05:46:59.432Z,88.81
2017-03-04T05:48:00.172Z,88.91
2017-03-04T05:49:00.879Z,89.29
2017-03-04T05:50:01.601Z,89.58
2017-03-04T05:51:02.307Z,89.1
2017-03-04T05:52:03.038Z,88.91
2017-03-04T05:53:03.765Z,89.48
2017-03-04T05:54:04.489Z,89.67
2017-03-04T05:55:05.198Z,89.58
2017-03-04T05:56:05.934Z,89.58
2017-03-04T05:57:06.657Z,89.29
2017-03-04T05:58:07.359Z,89.67
2017-03-04T05:59:08.088Z,89.76
2017-03-04T06:00:08.784Z,89.67
2017-03-04T06:01:09.494Z,89.1
2017-03-04T06:02:10.208Z,89.1
2017-03-04T06:03:10.935Z,88.72
2017-03-04T06:04:11.652Z,88.72
2017-03-04T06:05:12.376Z,88.62
2017-03-04T06:06:13.074Z,88.72
2017-03-04T06:07:13.787Z,88.91
2017-03-04T06:08:14.505Z,88.81
2017-03-04T06:09:15.202Z,88.24
2017-03-04T06:10:15.918Z,88.24
2017-03-04T06:11:16.655Z,88.91
2017-03-04T06:12:17.357Z,88.62
2017-03-04T06:13:18.104Z,88.91
2017-03-04T06:14:18.827Z,88.53
2017-03-04T06:15:19.538Z,88.24
2017-03-04T06:16:20.273Z,88.06
2017-03-04T06:17:20.961Z,87.96
2017-03-04T06:18:21.670Z,88.24
2017-03-04T06:19:22.386Z,88.53
2017-03-04T06:20:23.101Z,88.43
2017-03-04T06:21:23.812Z,88.81
2017-03-04T06:22:24.594Z,88.43
2017-03-04T06:23:25.332Z,88.62
2017-03-04T06:24:26.064Z,88.72
2017-03-04T06:25:26.779Z,88.62
2017-03-04T06:26:27.542Z,87.96
2017-03-04T06:27:28.256Z,88.06
2017-03-04T06:28:28.978Z,87.96
2017-03-04T06:29:29.708Z,87.96
2017-03-04T06:30:30.443Z,87.87
2017-03-04T06:31:31.264Z,87.77
2017-03-04T06:32:31.969Z,87.77
2017-03-04T06:33:32.663Z,87.68
2017-03-04T06:34:33.360Z,87.58
2017-03-04T06:35:34.091Z,87.58
2017-03-04T06:36:34.823Z,88.06
2017-03-04T06:37:35.541Z,87.68
2017-03-04T06:38:36.251Z,87.3
2017-03-04T06:39:36.968Z,87.49
2017-03-04T06:40:37.673Z,87.58
2017-03-04T06:41:38.414Z,86.82
2017-03-04T06:42:39.127Z,86.72
2017-03-04T06:43:39.832Z,87.2
2017-03-04T06:44:40.544Z,86.44
2017-03-04T06:45:41.269Z,85.87
2017-03-04T06:46:41.957Z,86.35
2017-03-04T06:47:42.658Z,86.25
2017-03-04T06:48:43.376Z,85.78
2017-03-04T06:49:44.125Z,85.97
2017-03-04T06:50:44.898Z,85.87
2017-03-04T06:51:45.640Z,85.78
2017-03-04T06:52:46.351Z,84.92
2017-03-04T06:53:47.068Z,84.74
2017-03-04T06:54:47.796Z,84.68
2017-03-04T06:55:48.524Z,84.49
2017-03-04T06:56:49.240Z,84.49
2017-03-04T06:57:50.483Z,84.59
2017-03-04T06:58:51.204Z,84.78
2017-03-04T06:59:51.905Z,84.3
2017-03-04T07:00:52.625Z,84.59
2017-03-04T07:01:53.347Z,84.11
2017-03-04T07:02:54.109Z,84.49
2017-03-04T07:03:54.814Z,84.68
2017-03-04T07:04:55.513Z,84.3
2017-03-04T07:05:56.280Z,83.54
2017-03-04T07:06:56.972Z,83.64
2017-03-04T07:07:57.686Z,84.3
2017-03-04T07:08:58.415Z,84.4
2017-03-04T07:09:59.163Z,84.01
2017-03-04T07:10:59.892Z,83.26
2017-03-04T07:12:00.637Z,83.64
2017-03-04T07:13:01.388Z,83.07
2017-03-04T07:14:02.082Z,83.07
2017-03-04T07:15:02.794Z,83.16
2017-03-04T07:16:03.505Z,82.78
2017-03-04T07:17:04.206Z,83.16
2017-03-04T07:18:04.933Z,82.78
2017-03-04T07:19:05.684Z,82.97
2017-03-04T07:20:06.420Z,82.5
2017-03-04T07:21:07.181Z,82.78
2017-03-04T07:22:07.904Z,83.07
2017-03-04T07:23:08.620Z,82.88
2017-03-04T07:24:09.359Z,82.78
2017-03-04T07:25:10.063Z,82.69
2017-03-04T07:26:10.809Z,82.4
2017-03-04T07:27:11.519Z,82.5
2017-03-04T07:28:12.232Z,82.31
2017-03-04T07:29:12.962Z,82.69
2017-03-04T07:30:13.684Z,82.4
2017-03-04T07:31:14.409Z,81.93
2017-03-04T07:32:15.112Z,81.49
2017-03-04T07:33:15.839Z,81.97
2017-03-04T07:34:16.543Z,81.4
2017-03-04T07:35:17.251Z,81.3
2017-03-04T07:36:18.010Z,81.97
2017-03-04T07:37:18.759Z,82.73
2017-03-04T07:38:19.467Z,81.59
2017-03-04T07:39:20.196Z,81.49
2017-03-04T07:40:20.916Z,81.49
2017-03-04T07:41:21.623Z,81.4
2017-03-04T07:42:22.338Z,80.74
2017-03-04T07:43:23.068Z,80.74
2017-03-04T07:44:23.792Z,79.88
2017-03-04T07:45:24.511Z,79.79
2017-03-04T07:46:25.227Z,79.44
2017-03-04T07:47:25.978Z,79.44
2017-03-04T07:48:26.712Z,78.5
2017-03-04T07:49:27.435Z,77.64
2017-03-04T07:50:28.217Z,77.55
2017-03-04T07:51:28.942Z,77.39
2017-03-04T07:52:29.668Z,77.39
2017-03-04T07:53:30.391Z,76.44
2017-03-04T07:54:31.103Z,75.4
2017-03-04T07:55:31.834Z,75.49
2017-03-04T07:56:32.544Z,75.49
2017-03-04T07:57:33.270Z,75.59
2017-03-04T07:58:34.023Z,75.21
2017-03-04T07:59:34.725Z,75.59
2017-03-04T08:00:35.432Z,75.49
2017-03-04T08:01:36.144Z,74.67
2017-03-04T08:02:36.853Z,74.2
2017-03-04T08:03:37.579Z,73.82
2017-03-04T08:04:38.298Z,73.91
2017-03-04T08:05:39.024Z,74.39
2017-03-04T08:06:39.738Z,74.2
2017-03-04T08:07:40.467Z,73.82
2017-03-04T08:08:41.210Z,73.25
2017-03-04T08:09:41.933Z,73.34
2017-03-04T08:10:42.656Z,73.53
2017-03-04T08:11:43.384Z,73.53
2017-03-04T08:12:44.134Z,73.91
2017-03-04T08:13:44.873Z,73.06
2017-03-04T08:14:45.600Z,73.72
2017-03-04T08:15:46.319Z,73.06
2017-03-04T08:16:47.055Z,73.1
2017-03-04T08:17:47.834Z,72.42
2017-03-04T08:18:48.577Z,72.24
2017-03-04T08:19:49.327Z,72.24
2017-03-04T08:20:50.091Z,71.28
2017-03-04T08:21:50.823Z,70.43
2017-03-04T08:22:51.569Z,70.9
2017-03-04T08:23:52.286Z,69.95
2017-03-04T08:24:53.020Z,69.57
2017-03-04T08:25:53.731Z,70.14
2017-03-04T08:26:54.468Z,70.27
2017-03-04T08:27:55.211Z,70.33
2017-03-04T08:28:55.939Z,69.79
2017-03-04T08:29:56.691Z,69.89
2017-03-04T08:30:57.428Z,69.7
2017-03-04T08:31:58.713Z,69.79
2017-03-04T08:32:59.459Z,70.37
2017-03-04T08:34:00.176Z,69.51
2017-03-04T08:35:00.973Z,69.23
2017-03-04T08:36:01.705Z,69.32
2017-03-04T08:37:02.441Z,69.7
2017-03-04T08:38:03.178Z,69.6
2017-03-04T08:39:03.926Z,69.51
2017-03-04T08:40:04.653Z,69.79
2017-03-04T08:41:05.512Z,69.42
2017-03-04T08:42:06.249Z,69.6
2017-03-04T08:43:07.314Z,69.79
2017-03-04T08:44:08.054Z,69.6
2017-03-04T08:45:08.798Z,69.6
2017-03-04T08:46:09.533Z,70.37
2017-03-04T08:47:10.316Z,69.7
2017-03-04T08:48:11.079Z,70.27
2017-03-04T08:49:11.825Z,69.76
2017-03-04T08:50:12.580Z,69.79
2017-03-04T08:51:13.387Z,69.6
2017-03-04T08:52:14.113Z,69.32
2017-03-04T08:53:14.853Z,69.42
2017-03-04T08:54:15.594Z,69.79
2017-03-04T08:55:16.339Z,69.51
2017-03-04T08:56:17.089Z,69.7
2017-03-04T08:57:17.820Z,70.18
2017-03-04T08:58:18.566Z,69.04
2017-03-04T08:59:19.286Z,68.65
2017-03-04T09:00:20.034Z,68.18
2017-03-04T09:01:20.763Z,68.94
2017-03-04T09:02:21.501Z,69.04
2017-03-04T09:03:22.257Z,69.13
2017-03-04T09:04:23.008Z,69.93
2017-03-04T09:05:23.727Z,68.88
2017-03-04T09:06:24.510Z,68.46
2017-03-04T09:07:25.240Z,68.3
2017-03-04T09:08:25.963Z,68.65
2017-03-04T09:09:26.681Z,68.78
2017-03-04T09:10:27.428Z,69.04
2017-03-04T09:11:28.170Z,68.94
2017-03-04T09:12:28.947Z,68.94
2017-03-04T09:13:29.710Z,68.65
2017-03-04T09:14:30.446Z,69.23
2017-03-04T09:15:31.188Z,69.23
2017-03-04T09:16:31.920Z,69.79
2017-03-04T09:17:32.645Z,69.42
2017-03-04T09:18:33.383Z,69.32
2017-03-04T09:19:34.106Z,69.79
2017-03-04T09:20:34.845Z,69.89
2017-03-04T09:21:35.581Z,69.89
2017-03-04T09:22:36.335Z,69.51
2017-03-04T09:23:37.072Z,70.27
2017-03-04T09:24:37.800Z,70.37
2017-03-04T09:25:38.532Z,70.47
2017-03-04T09:26:39.259Z,69.42
2017-03-04T09:27:40.010Z,69.13
2017-03-04T09:28:40.762Z,69.6
2017-03-04T09:29:41.553Z,70.08
2017-03-04T09:30:42.300Z,69.51
2017-03-04T09:31:43.026Z,69.99
2017-03-04T09:32:43.787Z,70.08
2017-03-04T09:33:45.020Z,70.12
2017-03-04T09:34:45.773Z,70.27
2017-03-04T09:35:46.503Z,69.32
2017-03-04T09:36:47.231Z,69.45
2017-03-04T09:37:47.996Z,69.93
2017-03-04T09:38:48.752Z,69.89
2017-03-04T09:39:49.488Z,69.99
2017-03-04T09:40:50.226Z,69.7
2017-03-04T09:41:51.010Z,70.27
2017-03-04T09:42:51.781Z,69.89
2017-03-04T09:43:52.512Z,69.79
2017-03-04T09:44:53.293Z,69.7
2017-03-04T09:45:54.285Z,70.27
2017-03-04T09:46:55.305Z,70.84
2017-03-04T09:47:56.201Z,70.27
2017-03-04T09:48:56.950Z,70.94
2017-03-04T09:49:57.699Z,70.84
2017-03-04T09:50:58.456Z,71.32
2017-03-04T09:51:59.271Z,70.75
2017-03-04T09:53:00.034Z,70.94
2017-03-04T09:54:00.784Z,70.75
2017-03-04T09:55:01.504Z,71.03
2017-03-04T09:56:02.240Z,71.89
2017-03-04T09:57:02.964Z,71.7
2017-03-04T09:58:03.698Z,71.61
2017-03-04T09:59:04.437Z,71.61
2017-03-04T10:00:05.229Z,71.7
2017-03-04T10:01:05.993Z,71.42
2017-03-04T10:02:06.708Z,71.42
2017-03-04T10:03:07.719Z,71.89
2017-03-04T10:04:08.563Z,71.51
2017-03-04T10:05:09.287Z,71.42
2017-03-04T10:06:10.031Z,71.7
2017-03-04T10:07:10.776Z,71.61
2017-03-04T10:08:11.511Z,72.69
2017-03-04T10:09:12.286Z,71.98
2017-03-04T10:10:13.063Z,71.42
2017-03-04T10:11:13.810Z,71.32
2017-03-04T10:12:14.559Z,71.51
2017-03-04T10:13:15.285Z,71.07
2017-03-04T10:14:16.054Z,71.83
2017-03-04T10:15:16.870Z,71.64
2017-03-04T10:16:17.657Z,70.97
2017-03-04T10:17:18.398Z,70.88
2017-03-04T10:18:19.105Z,70.97
2017-03-04T10:19:19.846Z,71.17
2017-03-04T10:20:20.616Z,71.61
2017-03-04T10:21:21.479Z,71.64
2017-03-04T10:22:22.327Z,71.93
2017-03-04T10:23:23.077Z,70.78
2017-03-04T10:24:23.974Z,71.07
2017-03-04T10:25:24.747Z,70.97
2017-03-04T10:26:25.519Z,71.45
2017-03-04T10:27:26.278Z,71.83
2017-03-04T10:28:26.996Z,70.88
2017-03-04T10:29:27.739Z,70.31
2017-03-04T10:30:28.473Z,69.93
2017-03-04T10:31:29.223Z,70.4
2017-03-04T10:32:30.013Z,70.02
2017-03-04T10:33:30.786Z,70.69
2017-03-04T10:34:31.493Z,70.4
2017-03-04T10:35:32.227Z,70.12
2017-03-04T10:36:32.945Z,70.4
2017-03-04T10:37:33.726Z,70.82
2017-03-04T10:38:34.454Z,70.34
2017-03-04T10:39:35.199Z,70.63
2017-03-04T10:40:35.960Z,69.68
2017-03-04T10:41:36.684Z,69.48
2017-03-04T10:42:37.414Z,69.2
2017-03-04T10:43:38.177Z,68.91
2017-03-04T10:44:38.918Z,68.91
2017-03-04T10:45:39.694Z,69.2
2017-03-04T10:46:40.446Z,69.68
2017-03-04T10:47:41.171Z,68.91
2017-03-04T10:48:41.918Z,68.82
2017-03-04T10:49:42.677Z,69.1
2017-03-04T10:50:43.418Z,68.82
2017-03-04T10:51:44.189Z,68.34
2017-03-04T10:52:44.956Z,69.1
2017-03-04T10:53:45.697Z,69.2
2017-03-04T10:54:46.452Z,69.1
2017-03-04T10:55:47.204Z,69.1
2017-03-04T10:56:47.941Z,69.29
2017-03-04T10:57:48.691Z,69.29
2017-03-04T10:58:49.410Z,68.91
2017-03-04T10:59:50.211Z,68.53
2017-03-04T11:00:50.941Z,68.53
2017-03-04T11:01:51.682Z,69.2
2017-03-04T11:02:52.407Z,69.1
2017-03-04T11:03:53.138Z,69.1
2017-03-04T11:04:53.885Z,69.2
2017-03-04T11:05:54.631Z,69.48
2017-03-04T11:06:55.360Z,69.2
2017-03-04T11:07:56.144Z,69.2
2017-03-04T11:08:56.902Z,69.1
2017-03-04T11:09:57.638Z,68.91
2017-03-04T11:10:58.360Z,69.58
2017-03-04T11:11:59.130Z,69.2
2017-03-04T11:12:59.868Z,69.04
2017-03-04T11:14:00.610Z,68.82
2017-03-04T11:15:01.345Z,69.04
2017-03-04T11:16:02.159Z,68.95
2017-03-04T11:17:02.879Z,69.04
2017-03-04T11:18:03.627Z,68.66
2017-03-04T11:19:04.367Z,68.57
2017-03-04T11:20:05.156Z,68.28
2017-03-04T11:21:05.864Z,68.38
2017-03-04T11:22:06.599Z,68.47
2017-03-04T11:23:07.333Z,68.18
2017-03-04T11:24:08.066Z,68.66
2017-03-04T11:25:08.782Z,68.28
2017-03-04T11:26:09.558Z,68.09
2017-03-04T11:27:10.407Z,68.57
2017-03-04T11:28:11.147Z,68.38
2017-03-04T11:29:11.904Z,68.22
2017-03-04T11:30:12.652Z,68.32
2017-03-04T11:31:13.451Z,68.03
2017-03-04T11:32:14.170Z,67.74
2017-03-04T11:33:14.943Z,68.03
2017-03-04T11:34:15.716Z,67.65
2017-03-04T11:35:16.466Z,67.17
2017-03-04T11:36:17.204Z,67.65
2017-03-04T11:37:17.957Z,67.65
2017-03-04T11:38:18.694Z,67.55
2017-03-04T11:39:19.435Z,67.46
2017-03-04T11:40:20.180Z,67.77
2017-03-04T11:41:20.906Z,67.11
2017-03-04T11:42:21.645Z,67.58
2017-03-04T11:43:22.409Z,67.49
2017-03-04T11:44:23.138Z,67.74
2017-03-04T11:45:23.875Z,67.4
2017-03-04T11:46:24.608Z,67.83
2017-03-04T11:47:25.336Z,68.63
2017-03-04T11:48:26.067Z,68.06
2017-03-04T11:49:26.821Z,68.35
2017-03-04T11:50:27.573Z,68.06
2017-03-04T11:51:28.331Z,68.63
2017-03-04T11:52:29.081Z,68.82
2017-03-04T11:53:29.858Z,68.26
2017-03-04T11:54:30.610Z,68.73
2017-03-04T11:55:31.457Z,68.73
2017-03-04T11:56:32.407Z,68.44
2017-03-04T11:57:33.390Z,68.06
2017-03-04T11:58:34.151Z,68.73
2017-03-04T11:59:34.896Z,68.63
2017-03-04T12:00:35.627Z,67.49
2017-03-04T12:01:36.385Z,68.06
2017-03-04T12:02:37.121Z,67.97
2017-03-04T12:03:37.915Z,68.63
2017-03-04T12:04:38.683Z,68.26
2017-03-04T12:05:39.425Z,68.26
2017-03-04T12:06:40.223Z,68
2017-03-04T12:07:40.955Z,68.38
2017-03-04T12:08:41.728Z,68.1
2017-03-04T12:09:42.481Z,67.91
2017-03-04T12:10:43.211Z,68.19
2017-03-04T12:11:43.986Z,67.87
2017-03-04T12:12:44.740Z,67.91
2017-03-04T12:13:45.512Z,68.67
2017-03-04T12:14:46.250Z,68.86
2017-03-04T12:15:47.076Z,68.38
2017-03-04T12:16:47.884Z,68.38
2017-03-04T12:17:48.658Z,68.29
2017-03-04T12:18:49.424Z,68.38
2017-03-04T12:19:50.186Z,68.76
2017-03-04T12:20:50.919Z,68.29
2017-03-04T12:21:51.671Z,68.19
2017-03-04T12:22:52.417Z,68.57
2017-03-04T12:23:53.150Z,68.86
2017-03-04T12:24:53.885Z,68.86
2017-03-04T12:25:54.625Z,68.57
2017-03-04T12:26:55.359Z,68.76
2017-03-04T12:27:56.116Z,68.76
2017-03-04T12:28:56.868Z,68.86
2017-03-04T12:29:57.622Z,68.67
2017-03-04T12:30:58.391Z,68.38
2017-03-04T12:31:59.135Z,68.76
2017-03-04T12:32:59.885Z,68.67
2017-03-04T12:34:00.699Z,68.96
2017-03-04T12:35:01.488Z,68.57
2017-03-04T12:36:02.234Z,68.7
2017-03-04T12:37:02.965Z,68.32
2017-03-04T12:38:03.720Z,68.41
2017-03-04T12:39:04.471Z,68.8
2017-03-04T12:40:05.221Z,68.41
2017-03-04T12:41:05.975Z,68.41
2017-03-04T12:42:06.740Z,68.13
2017-03-04T12:43:07.505Z,68.04
2017-03-04T12:44:08.269Z,68.13
2017-03-04T12:45:08.999Z,67.94
2017-03-04T12:46:09.767Z,67.94
2017-03-04T12:47:10.530Z,67.94
2017-03-04T12:48:11.277Z,68.13
2017-03-04T12:49:12.027Z,67.94
2017-03-04T12:50:12.809Z,68.32
2017-03-04T12:51:13.555Z,67.55
2017-03-04T12:52:14.355Z,66.99
2017-03-04T12:53:15.115Z,66.99
2017-03-04T12:54:15.862Z,67.65
2017-03-04T12:55:16.617Z,67.75
2017-03-04T12:56:17.358Z,68.23
2017-03-04T12:57:18.095Z,67.18
2017-03-04T12:58:18.863Z,66.89
2017-03-04T12:59:19.625Z,66.6
2017-03-04T13:00:20.379Z,67.08
2017-03-04T13:01:21.121Z,67.18
2017-03-04T13:02:21.889Z,66.89
2017-03-04T13:03:22.637Z,66.6
2017-03-04T13:04:23.367Z,66.99
2017-03-04T13:05:24.108Z,66.89
2017-03-04T13:06:24.853Z,67.27